Twin Springs, Nevada Weather observations

Data are for observation ending at time listed.
 Day   Time    Ave.   Ave.  Ave.  Vector   Max.   Stn.    Total    Solar   Ave.  
  of    of     Air    Rel.  Wind   Wind    Wind   Baro.  Precip.   Rad.    Soil  
Year   Day     Temp.  Hum.  Speed  Dir.    Gust   Pres.                    Temp. 
2015   (PST)    F      %     mph   deg.    mph     mb.     in.     W/m2     F   
------------------------------------------------------------------------------
 244    5:00   51.0    43    4.8   308      7.6    843     0.00       0    74.0
 244    6:00   49.9    40    5.5   330      7.3    844     0.00      19    72.8
 244    7:00   54.8    34    5.2   320      7.2    844     0.00     224    71.6
 244    8:00   64.3    26    5.3   328      7.7    844     0.00     445    70.9
 244    9:00   75.1    19    2.8   304      6.4    844     0.00     647    71.3
 244   10:00   83.3    15    8.4   165     21.3    844     0.00     808    73.2
 244   11:00   85.0    14   12.2   164     25.6    843     0.00     916    76.2
 244   12:00   86.6    12   11.6   165     23.3    843     0.00     966    79.2
 244   13:00   87.8    12   10.2   161     23.0    842     0.00     944    81.1
 244   14:00   88.5    11   10.5   191     22.5    842     0.00     865    82.5
 244   15:00   88.5    10   10.1   191     21.5    842     0.00     724    83.8
 244   16:00   87.6    10    9.7   201     20.8    841     0.00     537    84.7
 244   17:00   85.7    10   10.8   191     22.6    841     0.00     322    85.6
 244   18:00   82.8    11   10.6   185     21.1    841     0.00      99    85.6
 244   19:00   79.7    13    9.6   179     17.2    842     0.00       3    84.6
 244   20:00   76.3    15    6.1   185     11.5    843     0.00       0    83.4
 244   21:00   75.8    14    9.0   187     16.7    843     0.00       0    82.0
 244   22:00   74.8    15    8.0   184     15.3    843     0.00       0    80.8
 244   23:00   70.2    18    6.4   137     14.8    843     0.00       0    79.7
 245    0:00   69.3    20    3.9   147     11.8    844     0.00       0    78.6
 245    1:00   61.8    26    2.5   315      6.7    844     0.00       0    77.6
 245    2:00   60.7    29    3.4   311      6.4    844     0.00       0    76.5
 245    3:00   59.8    31    3.0   311      8.6    844     0.00       0    75.5
 245    4:00   53.9    32    4.5   314      8.5    844     0.00       0    74.6

Return to Twin Springs, Nevada graphs page.


Western Regional Climate Center,wrcc@dri.edu